Aérodrome :
LOGIN :

S'inscrire | Disclaimer

   EN    FR    IT 

 










Légende :    VFR   VFR Marginal   IFR   IFR Intensif   IFR Très Intensif
Visi : 
Plafond : 
>= 8 km
>= 3000ft
5 à 8 km
1000 à 3000 ft
1500m à 5 km
500 à 1000 ft
800 à 1500m
200 à 500 ft
< 800m
< 200 ft
Symboles :   Orages  Brouillard  Fortes neiges  Fortes précipitations  Vent > 20 kt
SIGMETs :   Divers  Orages  Givrage  Turbulence  Onde Orograph.  Cendres Volcan.







- Altitude de l'aérodrome : 436 ft
- Code IATA : ANG
- Voir les cartes d'approche


LFBU - Angoulême Brie Champniers

DERNIER METAR :
  • 181830Z AUTO 15007KT 9999 OVC008 04/03 Q1016 NOSIG

METARs EXPIRÉS :
  • 181800Z AUTO 15006KT 100V190 9999 OVC008 05/03 Q1016 NOSIG
  • 181730Z AUTO 15006KT 9999 OVC008 05/03 Q1016 NOSIG
  • 181700Z AUTO 14004KT 100V170 9999 OVC007 05/04 Q1016 BECMG BKN010
  • 181630Z AUTO 13004KT 080V160 9999 OVC007 05/04 Q1016 BECMG BKN010
  • 181600Z AUTO 12005KT 080V150 9999 OVC007 05/04 Q1016 NOSIG

TAF TAF LFBU
Valide du 18 à 18h jusqu'au 19 à 18h UTC


181700Z 1818/1918 15008KT 9999 BKN010
TEMPO 1818/1822 OVC007
TEMPO 1822/1918 4000 RA BKN004 BKN030
PROB30
TEMPO 1905/1911 1500 -DZ BR OVC003
Pas de NOTAMs connus pour ce terrain.



MET'MAP, la Météo Aéronautique d'un coup d'oeil ! - Copyright ORBIFLY Décembre 2007 - Disclaimer

ORBIFLY MET'MAP TEAM :

Programmation & Développement : Alexandra Zaïnal
Conception & Développement : Baudouin d'Aumeries
Co-Programmation & Développement : Marc-Olivier Méhu
Soutien technique & logistique : Manuel Goepfert

Contact : metmap@orbifly.com




SOURCES & CREDITS :

   NOAA